createdAt,value
2022-08-11T00:01:59.598Z,20.70
2022-08-11T00:04:34.196Z,20.70
2022-08-11T00:07:03.729Z,20.70
2022-08-11T00:09:38.930Z,20.60
2022-08-11T00:12:14.787Z,20.60
2022-08-11T00:14:42.816Z,20.50
2022-08-11T00:17:12.980Z,20.50
2022-08-11T00:20:11.837Z,20.40
2022-08-11T00:22:33.346Z,20.40
2022-08-11T00:25:09.066Z,20.30
2022-08-11T00:27:38.119Z,20.40
2022-08-11T00:30:06.731Z,20.30
2022-08-11T00:32:34.503Z,20.20
2022-08-11T00:35:54.134Z,20.20
2022-08-11T00:37:52.605Z,20.20
2022-08-11T00:40:28.206Z,20.30
2022-08-11T00:43:20.393Z,20.20
2022-08-11T00:46:23.352Z,20.20
2022-08-11T00:49:13.131Z,20.10
2022-08-11T00:52:24.443Z,20.10
2022-08-11T00:55:31.132Z,20.10
2022-08-11T00:58:28.052Z,20.10
2022-08-11T01:01:04.057Z,20.10
2022-08-11T01:03:52.890Z,20.00
2022-08-11T01:06:49.507Z,21.00
2022-08-11T01:09:41.038Z,20.00
2022-08-11T01:12:38.998Z,20.00
2022-08-11T01:15:33.986Z,19.90
2022-08-11T01:18:38.420Z,19.90
2022-08-11T01:21:16.965Z,19.80
2022-08-11T01:23:46.432Z,19.90
2022-08-11T01:27:05.681Z,19.80
2022-08-11T01:30:08.449Z,19.70
2022-08-11T01:33:26.928Z,19.70
2022-08-11T01:36:08.543Z,19.70
2022-08-11T01:39:08.837Z,19.70
2022-08-11T01:42:18.786Z,19.70
2022-08-11T01:45:11.386Z,19.70
2022-08-11T01:48:07.120Z,20.90
2022-08-11T01:50:42.757Z,19.70
2022-08-11T01:53:22.011Z,19.80
2022-08-11T01:56:08.862Z,19.80
2022-08-11T01:59:10.102Z,19.70
2022-08-11T02:01:37.323Z,19.70
2022-08-11T02:04:39.778Z,19.70
2022-08-11T02:07:35.794Z,19.60
2022-08-11T02:10:51.744Z,19.60
2022-08-11T02:13:42.125Z,19.60
2022-08-11T02:16:22.564Z,19.60
2022-08-11T02:19:13.796Z,19.50
2022-08-11T02:22:14.011Z,19.60
2022-08-11T02:25:07.339Z,19.60
2022-08-11T02:27:59.368Z,19.50
2022-08-11T02:30:46.240Z,19.50
2022-08-11T02:33:24.786Z,19.50
2022-08-11T02:36:00.417Z,19.50
2022-08-11T02:38:47.633Z,19.50
2022-08-11T02:42:08.711Z,19.50
2022-08-11T02:45:29.697Z,19.50
2022-08-11T02:48:38.601Z,19.40
2022-08-11T02:51:25.893Z,19.30
2022-08-11T02:54:21.276Z,19.30
2022-08-11T02:57:24.298Z,19.20
2022-08-11T03:00:07.689Z,19.20
2022-08-11T03:02:57.505Z,19.20
2022-08-11T03:05:54.091Z,19.20
2022-08-11T03:08:30.065Z,19.20
2022-08-11T03:11:37.871Z,19.20
2022-08-11T03:14:48.685Z,19.20
2022-08-11T03:17:37.809Z,19.20
2022-08-11T03:20:33.319Z,19.20
2022-08-11T03:23:23.514Z,19.10
2022-08-11T03:26:12.231Z,19.10
2022-08-11T03:28:51.551Z,19.10
2022-08-11T03:31:36.808Z,19.00
2022-08-11T03:34:07.598Z,19.00
2022-08-11T03:37:16.059Z,19.00
2022-08-11T03:39:59.771Z,19.10
2022-08-11T03:42:38.242Z,19.10
2022-08-11T03:45:16.891Z,19.00
2022-08-11T03:48:17.850Z,19.00
2022-08-11T03:51:08.557Z,19.00
2022-08-11T03:54:13.228Z,19.00
2022-08-11T03:57:08.962Z,18.90
2022-08-11T04:00:13.206Z,19.00
2022-08-11T04:03:01.558Z,18.90
2022-08-11T04:06:11.891Z,18.90
2022-08-11T04:09:07.943Z,18.90
2022-08-11T04:11:37.634Z,19.00
2022-08-11T04:14:45.074Z,19.00
2022-08-11T04:17:32.674Z,19.00
2022-08-11T04:20:08.119Z,18.90
2022-08-11T04:22:48.312Z,18.80
2022-08-11T04:25:51.048Z,18.90
2022-08-11T04:28:55.556Z,18.90
2022-08-11T04:31:51.759Z,18.90
2022-08-11T04:34:57.050Z,18.80
2022-08-11T04:37:51.348Z,18.70
2022-08-11T04:40:54.934Z,18.60
2022-08-11T04:44:05.702Z,18.60
2022-08-11T04:46:48.189Z,18.60
2022-08-11T04:50:12.274Z,18.60
2022-08-11T04:53:16.720Z,18.60
2022-08-11T04:56:37.031Z,18.70
2022-08-11T04:59:53.483Z,18.80
2022-08-11T05:02:54.868Z,18.80
2022-08-11T05:05:31.982Z,18.80
2022-08-11T05:08:49.051Z,18.90
2022-08-11T05:11:46.058Z,18.90
2022-08-11T05:14:31.010Z,19.00
2022-08-11T05:17:27.774Z,19.00
2022-08-11T05:20:12.886Z,19.10
2022-08-11T05:23:06.167Z,19.20
2022-08-11T05:26:45.066Z,20.80
2022-08-11T05:29:21.014Z,19.30
2022-08-11T05:32:26.238Z,19.30
2022-08-11T05:34:54.687Z,19.40
2022-08-11T05:37:31.903Z,19.50
2022-08-11T05:40:31.638Z,19.50
2022-08-11T05:43:31.293Z,19.50
2022-08-11T05:46:21.045Z,19.60
2022-08-11T05:49:09.117Z,19.70
2022-08-11T05:52:05.128Z,19.70
2022-08-11T05:54:54.507Z,19.70
2022-08-11T05:57:43.857Z,19.90
2022-08-11T06:00:12.385Z,20.00
2022-08-11T06:02:55.248Z,20.10
2022-08-11T06:05:22.906Z,20.90
2022-08-11T06:07:55.196Z,20.30
2022-08-11T06:10:34.291Z,20.40
2022-08-11T06:13:02.260Z,20.40
2022-08-11T06:15:32.069Z,20.50
2022-08-11T06:18:04.110Z,20.50
2022-08-11T06:20:36.864Z,20.60
2022-08-11T06:23:06.599Z,20.70
2022-08-11T06:25:35.877Z,20.70
2022-08-11T06:28:07.426Z,20.80
2022-08-11T06:30:42.855Z,21.00
2022-08-11T06:33:29.976Z,21.20
2022-08-11T06:36:14.809Z,21.30
2022-08-11T06:39:08.492Z,21.50
2022-08-11T06:41:49.261Z,21.50
2022-08-11T06:44:32.471Z,21.60
2022-08-11T06:47:08.759Z,21.70
2022-08-11T06:49:58.550Z,21.90
2022-08-11T06:52:36.394Z,22.10
2022-08-11T06:55:56.547Z,22.30
2022-08-11T06:58:47.555Z,22.40
2022-08-11T07:01:23.146Z,22.60
2022-08-11T07:04:01.458Z,22.60
2022-08-11T07:07:14.588Z,22.60
2022-08-11T07:10:34.796Z,22.60
2022-08-11T07:13:39.405Z,22.60
2022-08-11T07:16:11.349Z,22.70
2022-08-11T07:19:00.939Z,22.90
2022-08-11T07:22:02.402Z,23.00
2022-08-11T07:25:02.772Z,23.00
2022-08-11T07:27:59.063Z,22.90
2022-08-11T07:30:26.333Z,23.00
2022-08-11T07:32:55.513Z,23.10
2022-08-11T07:35:31.215Z,23.40
2022-08-11T07:38:04.058Z,23.50
2022-08-11T07:40:34.669Z,23.70
2022-08-11T07:43:03.371Z,23.80
2022-08-11T07:45:49.592Z,23.80
2022-08-11T07:48:36.616Z,23.80
2022-08-11T07:51:22.328Z,23.90
2022-08-11T07:53:58.712Z,24.00
2022-08-11T07:56:54.366Z,24.00
2022-08-11T08:00:01.002Z,23.90
2022-08-11T08:02:50.061Z,23.90
2022-08-11T08:05:37.479Z,24.00
2022-08-11T08:08:23.748Z,24.10
2022-08-11T08:11:09.751Z,24.30
2022-08-11T08:13:56.494Z,24.20
2022-08-11T08:16:42.138Z,24.20
2022-08-11T08:19:13.342Z,24.30
2022-08-11T08:21:40.501Z,24.40
2022-08-11T08:24:12.572Z,24.50
2022-08-11T08:26:59.525Z,24.60
2022-08-11T08:29:55.147Z,24.70
2022-08-11T08:32:22.452Z,24.80
2022-08-11T08:34:54.195Z,24.80
2022-08-11T08:37:45.282Z,24.70
2022-08-11T08:40:11.239Z,24.70
2022-08-11T08:42:51.385Z,24.80
2022-08-11T08:45:18.615Z,25.00
2022-08-11T08:47:54.884Z,25.20
2022-08-11T08:50:27.736Z,25.30
2022-08-11T08:53:07.091Z,25.10
2022-08-11T08:55:34.327Z,25.20
2022-08-11T08:58:02.047Z,25.30
2022-08-11T09:00:41.108Z,25.30
2022-08-11T09:03:38.153Z,25.40
2022-08-11T09:05:56.173Z,25.50
2022-08-11T09:08:24.794Z,25.60
2022-08-11T09:11:14.015Z,25.60
2022-08-11T09:13:44.425Z,25.70
2022-08-11T09:16:12.010Z,25.80
2022-08-11T09:18:41.389Z,26.00
2022-08-11T09:21:08.662Z,26.00
2022-08-11T09:24:14.998Z,26.10
2022-08-11T09:26:59.890Z,25.90
2022-08-11T09:29:29.049Z,26.10
2022-08-11T09:31:57.107Z,26.10
2022-08-11T09:34:26.279Z,26.20
2022-08-11T09:37:12.585Z,26.40
2022-08-11T09:40:00.259Z,26.40
2022-08-11T09:42:47.649Z,26.50
2022-08-11T09:45:15.161Z,26.50
2022-08-11T09:47:44.831Z,26.50
2022-08-11T09:50:14.836Z,26.60
2022-08-11T09:53:03.612Z,26.40
2022-08-11T09:55:29.956Z,26.60
2022-08-11T09:58:42.549Z,26.60
2022-08-11T10:01:03.828Z,26.70
2022-08-11T10:03:33.007Z,26.90
2022-08-11T10:06:22.087Z,27.10
2022-08-11T10:09:03.063Z,27.10
2022-08-11T10:11:30.433Z,27.20
2022-08-11T10:14:31.188Z,27.10
2022-08-11T10:17:05.951Z,27.00
2022-08-11T10:19:35.856Z,27.10
2022-08-11T10:22:22.332Z,27.10
2022-08-11T10:25:07.633Z,27.00
2022-08-11T10:28:16.903Z,27.10
2022-08-11T10:30:42.384Z,27.20
2022-08-11T10:33:36.956Z,27.30
2022-08-11T10:36:16.685Z,27.30
2022-08-11T10:38:45.804Z,27.40
2022-08-11T10:41:32.463Z,27.50
2022-08-11T10:44:02.599Z,27.40
2022-08-11T10:46:49.607Z,27.50
2022-08-11T10:49:17.236Z,27.60
2022-08-11T10:52:03.388Z,27.60
2022-08-11T10:54:52.158Z,27.60
2022-08-11T10:57:38.457Z,27.70
2022-08-11T11:00:06.942Z,27.50
2022-08-11T11:02:34.463Z,27.50
2022-08-11T11:05:24.901Z,27.60
2022-08-11T11:08:26.072Z,27.80
2022-08-11T11:10:53.172Z,28.00
2022-08-11T11:13:40.307Z,28.00
2022-08-11T11:16:44.161Z,27.90
2022-08-11T11:19:12.173Z,27.90
2022-08-11T11:21:39.848Z,28.00
2022-08-11T11:24:33.855Z,27.90
2022-08-11T11:27:09.519Z,27.70
2022-08-11T11:29:49.300Z,27.70
2022-08-11T11:32:35.136Z,28.60
2022-08-11T11:35:26.801Z,28.20
2022-08-11T11:38:04.612Z,28.30
2022-08-11T11:40:33.481Z,28.50
2022-08-11T11:43:01.382Z,28.50
2022-08-11T11:45:28.511Z,28.40
2022-08-11T11:47:59.362Z,28.40
2022-08-11T11:50:36.360Z,28.40
2022-08-11T11:53:08.194Z,28.40
2022-08-11T11:55:35.797Z,28.40
2022-08-11T11:58:22.884Z,28.20
2022-08-11T12:01:10.017Z,28.20
2022-08-11T12:03:38.019Z,28.00
2022-08-11T12:06:07.049Z,28.10
2022-08-11T12:08:34.776Z,28.10
2022-08-11T12:11:24.047Z,28.20
2022-08-11T12:13:53.089Z,28.40
2022-08-11T12:16:33.647Z,28.50
2022-08-11T12:19:09.041Z,28.70
2022-08-11T12:21:37.294Z,28.80
2022-08-11T12:24:28.549Z,28.80
2022-08-11T12:27:17.709Z,28.90
2022-08-11T12:29:55.089Z,28.90
2022-08-11T12:32:25.888Z,28.90
2022-08-11T12:34:53.623Z,29.10
2022-08-11T12:37:45.585Z,28.80
2022-08-11T12:41:11.680Z,29.30
2022-08-11T12:43:56.466Z,29.20
2022-08-11T12:46:29.070Z,29.30
2022-08-11T12:49:17.604Z,29.20
2022-08-11T12:52:06.816Z,29.00
2022-08-11T12:54:59.921Z,28.90
2022-08-11T12:57:57.401Z,28.80
2022-08-11T13:00:44.761Z,28.70
2022-08-11T13:03:32.023Z,28.80
2022-08-11T13:06:02.480Z,28.80
2022-08-11T13:08:35.386Z,28.90
2022-08-11T13:11:21.957Z,28.90
2022-08-11T13:13:54.215Z,29.00
2022-08-11T13:16:27.943Z,29.20
2022-08-11T13:18:56.218Z,29.20
2022-08-11T13:21:23.875Z,29.00
2022-08-11T13:23:59.963Z,29.00
2022-08-11T13:26:48.499Z,28.90
2022-08-11T13:29:28.719Z,29.00
2022-08-11T13:31:59.884Z,29.30
2022-08-11T13:34:28.305Z,28.40
2022-08-11T13:36:58.059Z,29.40
2022-08-11T13:39:27.229Z,29.40
2022-08-11T13:41:57.106Z,29.40
2022-08-11T13:44:27.419Z,29.40
2022-08-11T13:46:57.696Z,29.40
2022-08-11T13:49:25.784Z,29.30
2022-08-11T13:51:54.156Z,29.40
2022-08-11T13:54:27.228Z,29.30
2022-08-11T13:57:00.552Z,29.40
2022-08-11T13:59:29.599Z,29.50
2022-08-11T14:02:28.102Z,29.60
2022-08-11T14:05:01.577Z,29.60
2022-08-11T14:07:35.542Z,29.40
2022-08-11T14:10:04.807Z,29.70
2022-08-11T14:12:53.196Z,30.00
2022-08-11T14:15:22.636Z,30.30
2022-08-11T14:17:54.936Z,30.70
2022-08-11T14:20:39.723Z,30.60
2022-08-11T14:23:10.832Z,30.50
2022-08-11T14:26:01.928Z,30.40
2022-08-11T14:28:37.347Z,29.50
2022-08-11T14:31:09.297Z,30.80
2022-08-11T14:33:58.272Z,30.80
2022-08-11T14:36:26.270Z,30.40
2022-08-11T14:38:53.922Z,30.40
2022-08-11T14:42:11.286Z,30.60
2022-08-11T14:44:49.017Z,30.60
2022-08-11T14:47:24.468Z,30.80
2022-08-11T14:49:58.651Z,31.00
2022-08-11T14:52:38.350Z,31.10
2022-08-11T14:55:25.918Z,32.00
2022-08-11T14:57:56.047Z,31.10
2022-08-11T15:00:34.249Z,31.50
2022-08-11T15:03:12.923Z,31.80
2022-08-11T15:05:57.398Z,32.00
2022-08-11T15:08:48.261Z,31.80
2022-08-11T15:11:36.730Z,31.80
2022-08-11T15:14:06.178Z,31.70
2022-08-11T15:16:53.427Z,31.20
2022-08-11T15:19:23.647Z,30.80
2022-08-11T15:22:09.506Z,30.70
2022-08-11T15:24:37.254Z,30.50
2022-08-11T15:27:35.547Z,30.50
2022-08-11T15:30:32.817Z,30.60
2022-08-11T15:33:23.124Z,31.00
2022-08-11T15:36:10.693Z,31.10
2022-08-11T15:38:55.782Z,30.70
2022-08-11T15:41:58.499Z,30.60
2022-08-11T15:45:04.866Z,30.90
2022-08-11T15:47:58.387Z,30.70
2022-08-11T15:50:38.070Z,30.60
2022-08-11T15:53:10.276Z,30.50
2022-08-11T15:55:38.962Z,30.70
2022-08-11T15:58:28.117Z,30.50
2022-08-11T16:01:14.900Z,30.30
2022-08-11T16:04:12.675Z,30.40
2022-08-11T16:07:06.084Z,30.50
2022-08-11T16:09:46.979Z,30.80
2022-08-11T16:12:32.650Z,32.40
2022-08-11T16:15:27.778Z,35.20
2022-08-11T16:18:00.259Z,36.90
2022-08-11T16:20:29.086Z,37.70
2022-08-11T16:23:03.234Z,37.90
2022-08-11T16:27:01.997Z,36.10
2022-08-11T16:28:22.384Z,33.20
2022-08-11T16:30:51.026Z,31.40
2022-08-11T16:33:48.357Z,30.20
2022-08-11T16:36:27.604Z,29.50
2022-08-11T16:38:56.750Z,29.20
2022-08-11T16:41:46.294Z,29.00
2022-08-11T16:44:37.534Z,29.00
2022-08-11T16:47:12.930Z,28.90
2022-08-11T16:49:52.466Z,28.80
2022-08-11T16:52:20.947Z,28.70
2022-08-11T16:54:48.349Z,28.70
2022-08-11T16:57:43.138Z,29.30
2022-08-11T17:00:12.688Z,29.30
2022-08-11T17:03:05.619Z,28.60
2022-08-11T17:05:55.150Z,28.30
2022-08-11T17:08:57.384Z,28.10
2022-08-11T17:11:46.086Z,28.00
2022-08-11T17:14:36.145Z,28.10
2022-08-11T17:17:13.180Z,27.80
2022-08-11T17:20:39.744Z,27.70
2022-08-11T17:22:54.397Z,27.60
2022-08-11T17:25:24.415Z,27.50
2022-08-11T17:27:52.426Z,27.40
2022-08-11T17:30:19.754Z,27.50
2022-08-11T17:33:08.944Z,27.30
2022-08-11T17:35:41.534Z,27.30
2022-08-11T17:38:15.585Z,26.70
2022-08-11T17:41:06.510Z,27.10
2022-08-11T17:43:53.097Z,27.10
2022-08-11T17:46:38.874Z,27.00
2022-08-11T17:49:08.202Z,27.00
2022-08-11T17:51:55.259Z,26.90
2022-08-11T17:54:42.650Z,26.90
2022-08-11T17:57:30.399Z,26.80
2022-08-11T17:59:58.417Z,26.70
2022-08-11T18:02:57.931Z,26.60
2022-08-11T18:05:27.878Z,27.40
2022-08-11T18:08:16.133Z,26.60
2022-08-11T18:11:02.540Z,26.50
2022-08-11T18:13:51.557Z,26.40
2022-08-11T18:16:37.614Z,26.50
2022-08-11T18:19:24.845Z,26.40
2022-08-11T18:22:15.363Z,26.40
2022-08-11T18:25:10.601Z,26.40
2022-08-11T18:27:59.121Z,26.40
2022-08-11T18:30:45.786Z,26.30
2022-08-11T18:33:56.822Z,26.20
2022-08-11T18:36:42.382Z,26.10
2022-08-11T18:39:30.726Z,26.10
2022-08-11T18:42:29.054Z,25.90
2022-08-11T18:45:21.162Z,25.80
2022-08-11T18:48:11.621Z,25.80
2022-08-11T18:51:29.895Z,25.80
2022-08-11T18:54:12.990Z,25.80
2022-08-11T18:57:00.532Z,25.60
2022-08-11T18:59:47.546Z,25.40
2022-08-11T19:02:49.381Z,25.30
2022-08-11T19:06:05.976Z,25.30
2022-08-11T19:08:49.059Z,25.20
2022-08-11T19:11:42.795Z,25.20
2022-08-11T19:14:33.436Z,25.10
2022-08-11T19:17:43.587Z,25.10
2022-08-11T19:20:38.126Z,25.00
2022-08-11T19:23:26.650Z,24.90
2022-08-11T19:26:12.537Z,24.90
2022-08-11T19:29:00.663Z,24.80
2022-08-11T19:31:47.702Z,24.80
2022-08-11T19:34:35.670Z,24.60
2022-08-11T19:37:25.110Z,24.60
2022-08-11T19:40:24.340Z,24.60
2022-08-11T19:43:18.613Z,24.50
2022-08-11T19:46:14.998Z,24.20
2022-08-11T19:49:03.138Z,24.20
2022-08-11T19:51:53.420Z,24.40
2022-08-11T19:54:42.605Z,24.40
2022-08-11T19:57:28.484Z,24.30
2022-08-11T20:00:14.755Z,24.20
2022-08-11T20:03:00.178Z,24.00
2022-08-11T20:05:59.697Z,23.90
2022-08-11T20:08:47.936Z,23.90
2022-08-11T20:11:35.709Z,23.80
2022-08-11T20:14:21.940Z,23.70
2022-08-11T20:17:07.539Z,23.70
2022-08-11T20:19:57.112Z,23.70
2022-08-11T20:22:45.260Z,23.70
2022-08-11T20:25:32.591Z,23.40
2022-08-11T20:28:18.157Z,23.50
2022-08-11T20:31:04.456Z,23.60
2022-08-11T20:33:53.223Z,23.60
2022-08-11T20:36:38.495Z,23.60
2022-08-11T20:39:24.317Z,23.50
2022-08-11T20:42:12.205Z,23.50
2022-08-11T20:45:00.043Z,23.40
2022-08-11T20:47:59.438Z,23.30
2022-08-11T20:50:47.348Z,23.30
2022-08-11T20:53:36.734Z,23.20
2022-08-11T20:56:28.334Z,23.20
2022-08-11T20:59:21.825Z,23.20
2022-08-11T21:02:09.837Z,23.10
2022-08-11T21:05:00.225Z,23.00
2022-08-11T21:07:57.283Z,23.00
2022-08-11T21:10:50.573Z,22.90
2022-08-11T21:13:39.255Z,23.00
2022-08-11T21:16:27.272Z,22.90
2022-08-11T21:19:56.391Z,22.90
2022-08-11T21:22:59.389Z,22.90
2022-08-11T21:25:52.033Z,22.70
2022-08-11T21:28:40.887Z,22.70
2022-08-11T21:31:27.585Z,22.70
2022-08-11T21:34:14.557Z,22.80
2022-08-11T21:37:02.591Z,22.70
2022-08-11T21:39:49.614Z,22.80
2022-08-11T21:42:38.282Z,22.80
2022-08-11T21:45:25.958Z,22.80
2022-08-11T21:48:13.910Z,22.70
2022-08-11T21:50:59.270Z,22.70
2022-08-11T21:53:46.457Z,22.70
2022-08-11T21:56:33.007Z,22.50
2022-08-11T21:59:20.005Z,22.40
2022-08-11T22:02:12.391Z,22.40
2022-08-11T22:04:58.308Z,22.40
2022-08-11T22:07:43.713Z,22.30
2022-08-11T22:10:41.183Z,22.30
2022-08-11T22:13:27.131Z,22.30
2022-08-11T22:16:13.160Z,22.30
2022-08-11T22:18:59.058Z,22.30
2022-08-11T22:22:02.353Z,22.40
2022-08-11T22:24:50.995Z,22.50
2022-08-11T22:27:36.544Z,22.60
2022-08-11T22:30:23.795Z,22.60
2022-08-11T22:33:09.766Z,22.50
2022-08-11T22:35:59.873Z,22.50
2022-08-11T22:38:46.029Z,22.50
2022-08-11T22:41:31.767Z,22.50
2022-08-11T22:44:17.714Z,22.50
2022-08-11T22:47:03.872Z,22.40
2022-08-11T22:49:57.521Z,22.30
2022-08-11T22:52:45.016Z,22.20
2022-08-11T22:55:31.839Z,22.20
2022-08-11T22:58:18.122Z,22.20
2022-08-11T23:01:04.084Z,22.00
2022-08-11T23:03:51.029Z,22.00
2022-08-11T23:06:38.484Z,22.00
2022-08-11T23:09:25.070Z,21.90
2022-08-11T23:12:12.087Z,21.80
2022-08-11T23:14:58.736Z,21.90
2022-08-11T23:17:46.008Z,21.80
2022-08-11T23:20:38.301Z,21.70
2022-08-11T23:23:29.764Z,21.70
2022-08-11T23:26:16.334Z,21.80
2022-08-11T23:29:04.939Z,21.80
2022-08-11T23:31:54.048Z,21.80
2022-08-11T23:35:37.054Z,21.80
2022-08-11T23:37:47.989Z,21.70
2022-08-11T23:40:33.284Z,21.70
2022-08-11T23:43:19.658Z,21.70
2022-08-11T23:46:04.834Z,21.70
2022-08-11T23:48:51.529Z,21.70
2022-08-11T23:51:40.922Z,21.60
2022-08-11T23:54:31.605Z,21.60
2022-08-11T23:57:21.427Z,21.50
